Terminal Aerodrome Forecast
Issued by NWS Sterling, VA

Current Version | Previous Version | Graphics & Text | Print | Product List | Glossary On
Versions: 1 2 3 4 5 6 7 8 9 10 11 12 13 14 15 16 17 18 19 20
000
FTUS41 KLWX 271505 AAA
TAFIAD
TAF AMD
KIAD 271505Z 2715/2818 VRB03KT P6SM SCT250
     FM271800 20006KT P6SM VCTS BKN050CB
     FM280000 18006KT P6SM BKN080
     FM280500 19005KT P6SM FEW080 SCT200=

USA.gov is the U.S. government's official web portal to all federal, state and local government web resources and services.